Time;durP1;ratioP1;P1;durP2;ratioP2;P2;SDS_P1;SDS_P2;PMS_P1;PMS_P2;Temp;Humidity;BMP_temperature;BMP_pressure;BME280_temperature;BME280_humidity;BME280_pressure;Samples;Min_cycle;Max_cycle;Signal;HPM_P1;HPM_P2
2022/05/05 00:04:44;;;;;;;5.28;3.20;;;;;;;;;;10407735;28;20108;-62
2022/05/05 00:09:44;;;;;;;5.80;2.97;;;;;;;;;;10401452;28;20037;-63
2022/05/05 00:14:45;;;;;;;4.65;2.50;;;;;;;;;;10398050;28;20033;-62
2022/05/05 00:19:46;;;;;;;5.65;3.00;;;;;;;;;;10406827;28;20037;-62
2022/05/05 00:24:46;;;;;;;4.88;2.78;;;;;;;;;;10425384;28;20074;-58
2022/05/05 00:29:48;;;;;;;4.55;2.80;;;;;;;;;;10451788;28;20103;-63
2022/05/05 00:34:49;;;;;;;7.07;3.10;;;;;;;;;;10415289;28;20037;-63
2022/05/05 00:39:49;;;;;;;5.15;3.05;;;;;;;;;;10415291;28;20036;-64
2022/05/05 00:44:50;;;;;;;8.85;3.40;;;;;;;;;;10414491;28;20470;-64
2022/05/05 00:49:52;;;;;;;4.22;2.20;;;;;;;;;;10413241;28;20481;-64
2022/05/05 00:54:56;;;;;;;4.78;2.92;;;;;;;;;;10413909;28;20079;-63
2022/05/05 00:59:59;;;;;;;3.97;2.78;;;;;;;;;;10413832;28;20090;-63
2022/05/05 01:05:01;;;;;;;2.58;2.35;;;;;;;;;;10426699;28;20489;-63
2022/05/05 01:10:01;;;;;;;4.70;2.85;;;;;;;;;;10412647;28;20029;-63
2022/05/05 01:15:03;;;;;;;4.47;2.78;;;;;;;;;;10413098;28;20072;-63
2022/05/05 01:20:19;;;;;;;4.03;2.80;;;;;;;;;;10413417;28;20461;-67
2022/05/05 01:30:47;;;;;;;3.47;2.60;;;;;;;;;;10454005;28;20423;-63
2022/05/05 01:35:51;;;;;;;7.20;2.55;;;;;;;;;;10419225;28;20036;-63
2022/05/05 01:40:52;;;;;;;2.95;2.40;;;;;;;;;;10412441;28;20094;-61
2022/05/05 01:45:53;;;;;;;5.60;2.80;;;;;;;;;;10412241;28;20032;-62
2022/05/05 01:50:54;;;;;;;3.00;2.50;;;;;;;;;;10412171;28;20029;-62
2022/05/05 01:55:54;;;;;;;2.88;2.30;;;;;;;;;;10429068;28;20040;-62
2022/05/05 02:00:55;;;;;;;3.20;2.38;;;;;;;;;;10452669;28;20400;-61
2022/05/05 02:05:56;;;;;;;3.65;2.67;;;;;;;;;;10415636;28;20481;-62
2022/05/05 02:10:57;;;;;;;2.55;2.33;;;;;;;;;;10411176;28;20045;-62
2022/05/05 02:15:57;;;;;;;3.10;2.63;;;;;;;;;;10426184;28;20107;-61
2022/05/05 02:20:58;;;;;;;2.47;2.20;;;;;;;;;;10411077;28;20045;-62
2022/05/05 02:25:58;;;;;;;3.22;2.53;;;;;;;;;;10410774;28;20022;-61
2022/05/05 02:30:59;;;;;;;3.83;2.72;;;;;;;;;;10436454;28;20409;-64
2022/05/05 02:41:18;;;;;;;3.30;2.08;;;;;;;;;;10380572;28;20037;-64
2022/05/05 02:46:19;;;;;;;2.88;2.28;;;;;;;;;;10406057;28;20033;-64
2022/05/05 02:51:20;;;;;;;2.38;2.15;;;;;;;;;;10408380;28;20048;-64
2022/05/05 02:56:20;;;;;;;2.70;2.33;;;;;;;;;;10409421;28;20029;-63
2022/05/05 03:01:21;;;;;;;3.45;2.17;;;;;;;;;;10412361;28;20035;-62
2022/05/05 03:06:21;;;;;;;3.75;2.20;;;;;;;;;;10410411;28;20473;-63
2022/05/05 03:11:22;;;;;;;2.63;2.35;;;;;;;;;;10409112;28;20052;-62
2022/05/05 03:16:23;;;;;;;4.85;2.22;;;;;;;;;;10407659;28;20041;-64
2022/05/05 03:21:23;;;;;;;2.95;2.40;;;;;;;;;;10426701;28;20029;-62
2022/05/05 03:26:24;;;;;;;2.70;2.17;;;;;;;;;;10406527;28;20519;-64
2022/05/05 03:31:25;;;;;;;2.95;2.42;;;;;;;;;;10405274;28;20503;-64
2022/05/05 03:36:25;;;;;;;2.28;2.10;;;;;;;;;;10407520;28;20029;-65
2022/05/05 03:41:26;;;;;;;3.45;2.40;;;;;;;;;;10423621;28;20033;-63
2022/05/05 03:46:27;;;;;;;3.78;2.05;;;;;;;;;;10407525;28;20387;-63
2022/05/05 03:51:27;;;;;;;2.35;2.15;;;;;;;;;;10408079;28;20176;-64
2022/05/05 03:56:28;;;;;;;4.30;2.25;;;;;;;;;;10409026;28;20041;-63
2022/05/05 04:01:28;;;;;;;3.92;2.15;;;;;;;;;;10420154;28;20028;-63
2022/05/05 04:06:29;;;;;;;3.95;2.15;;;;;;;;;;10442406;28;20469;-63
2022/05/05 04:11:30;;;;;;;2.95;2.13;;;;;;;;;;10416162;28;20034;-64
2022/05/05 04:16:31;;;;;;;2.70;2.03;;;;;;;;;;10415096;28;20042;-65
2022/05/05 04:21:31;;;;;;;3.50;2.25;;;;;;;;;;10415571;28;20041;-64
2022/05/05 04:26:32;;;;;;;2.25;2.10;;;;;;;;;;10415498;28;20263;-62
2022/05/05 04:31:33;;;;;;;3.05;2.50;;;;;;;;;;10415281;28;20060;-62
2022/05/05 04:36:35;;;;;;;2.30;2.10;;;;;;;;;;10414851;28;20385;-62
2022/05/05 04:41:36;;;;;;;3.13;2.10;;;;;;;;;;10413902;28;20068;-61
2022/05/05 04:46:37;;;;;;;3.25;2.35;;;;;;;;;;10414204;28;20041;-61
2022/05/05 04:51:37;;;;;;;3.15;2.40;;;;;;;;;;10391130;28;20036;-61
2022/05/05 04:56:38;;;;;;;3.38;1.80;;;;;;;;;;10374297;28;20096;-63
2022/05/05 05:01:39;;;;;;;3.80;2.00;;;;;;;;;;10382973;28;20251;-68
2022/05/05 05:06:40;;;;;;;2.58;2.30;;;;;;;;;;10409871;28;20092;-63
2022/05/05 05:11:40;;;;;;;2.40;2.20;;;;;;;;;;10372927;28;20037;-64
2022/05/05 05:16:41;;;;;;;2.00;1.80;;;;;;;;;;10386075;28;20164;-63
2022/05/05 05:21:41;;;;;;;4.43;2.05;;;;;;;;;;10408877;28;20025;-63
2022/05/05 05:26:42;;;;;;;2.28;2.08;;;;;;;;;;10406586;28;20060;-60
2022/05/05 05:31:42;;;;;;;2.30;2.10;;;;;;;;;;10414029;28;20255;-63
2022/05/05 05:36:43;;;;;;;1.98;1.83;;;;;;;;;;10409879;28;20017;-63
2022/05/05 05:41:44;;;;;;;1.95;1.85;;;;;;;;;;10410909;28;20032;-63
2022/05/05 05:46:45;;;;;;;2.17;1.95;;;;;;;;;;10410520;28;20060;-62
2022/05/05 05:51:45;;;;;;;2.30;2.10;;;;;;;;;;10398649;28;20041;-64
2022/05/05 05:56:46;;;;;;;2.65;2.17;;;;;;;;;;10411525;28;20034;-63
2022/05/05 06:07:06;;;;;;;2.13;1.92;;;;;;;;;;10413371;28;20025;-62
2022/05/05 06:12:08;;;;;;;2.58;2.00;;;;;;;;;;10411272;28;20418;-62
2022/05/05 06:17:08;;;;;;;2.33;2.10;;;;;;;;;;10411110;28;20137;-64
2022/05/05 06:22:09;;;;;;;2.22;2.10;;;;;;;;;;10391260;28;20449;-64
2022/05/05 06:27:10;;;;;;;4.10;2.20;;;;;;;;;;10369142;28;20081;-61
2022/05/05 06:32:11;;;;;;;2.28;1.92;;;;;;;;;;10370206;28;20026;-62
2022/05/05 06:37:12;;;;;;;2.40;2.08;;;;;;;;;;10380032;28;20088;-63
2022/05/05 06:42:13;;;;;;;2.70;2.45;;;;;;;;;;10409750;28;20032;-60
2022/05/05 06:47:14;;;;;;;2.67;2.05;;;;;;;;;;10409695;28;20036;-64
2022/05/05 06:52:15;;;;;;;2.75;2.30;;;;;;;;;;10403892;28;20029;-66
2022/05/05 06:57:15;;;;;;;2.65;2.00;;;;;;;;;;10408325;28;20496;-65
2022/05/05 07:02:16;;;;;;;2.30;2.10;;;;;;;;;;10410410;28;20469;-67
2022/05/05 07:07:19;;;;;;;5.38;2.47;;;;;;;;;;10431981;28;20027;-65
2022/05/05 07:12:20;;;;;;;2.55;2.35;;;;;;;;;;10408865;28;20018;-66
2022/05/05 07:17:22;;;;;;;3.13;2.20;;;;;;;;;;10408578;28;20049;-65
2022/05/05 07:22:22;;;;;;;5.90;2.75;;;;;;;;;;10408069;28;20478;-62
2022/05/05 07:27:23;;;;;;;3.38;2.60;;;;;;;;;;10408631;28;20026;-66
2022/05/05 07:32:23;;;;;;;3.70;2.70;;;;;;;;;;10422841;28;20088;-64
2022/05/05 07:37:24;;;;;;;13.82;2.75;;;;;;;;;;10408318;28;20037;-64
2022/05/05 07:42:24;;;;;;;4.75;2.55;;;;;;;;;;10407653;28;20030;-62
2022/05/05 07:47:25;;;;;;;12.80;2.83;;;;;;;;;;10407692;28;20025;-61
2022/05/05 07:52:26;;;;;;;10.23;2.80;;;;;;;;;;10406560;28;20028;-61
2022/05/05 07:57:26;;;;;;;7.25;2.80;;;;;;;;;;10407301;28;20500;-61
2022/05/05 08:02:27;;;;;;;10.02;2.90;;;;;;;;;;10417005;28;20026;-61
2022/05/05 08:07:28;;;;;;;11.55;3.20;;;;;;;;;;10407405;28;20576;-61
2022/05/05 08:12:29;;;;;;;11.70;3.42;;;;;;;;;;10408137;28;20500;-61
2022/05/05 08:17:29;;;;;;;5.47;2.40;;;;;;;;;;10407599;28;20078;-61
2022/05/05 08:22:30;;;;;;;7.65;2.75;;;;;;;;;;10406765;28;20116;-61
2022/05/05 08:32:50;;;;;;;10.60;3.33;;;;;;;;;;10406211;28;20034;-61
2022/05/05 08:37:51;;;;;;;5.88;2.70;;;;;;;;;;10399353;28;20029;-61
2022/05/05 08:42:52;;;;;;;6.13;3.25;;;;;;;;;;10408080;28;20471;-61
2022/05/05 08:47:54;;;;;;;6.68;3.20;;;;;;;;;;10413067;28;20030;-61
2022/05/05 08:52:55;;;;;;;6.35;3.22;;;;;;;;;;10414267;28;20025;-61
2022/05/05 08:57:56;;;;;;;7.80;3.40;;;;;;;;;;10438570;28;20093;-61
2022/05/05 09:03:00;;;;;;;6.97;3.00;;;;;;;;;;10420307;28;20044;-60
2022/05/05 09:08:01;;;;;;;8.15;3.33;;;;;;;;;;10413861;28;20116;-61
2022/05/05 09:13:02;;;;;;;8.45;3.45;;;;;;;;;;10411717;28;20029;-57
2022/05/05 09:18:17;;;;;;;4.68;3.08;;;;;;;;;;10410071;28;20053;-47
2022/05/05 09:24:34;;;;;;;6.75;3.20;;;;;;;;;;10412995;28;20079;-49
2022/05/05 09:29:19;;;;;;;8.35;3.42;;;;;;;;;;10401582;28;20575;-47
2022/05/05 09:34:20;;;;;;;8.00;3.22;;;;;;;;;;10412686;28;20026;-47
2022/05/05 09:39:21;;;;;;;6.93;3.38;;;;;;;;;;10410549;28;20423;-48
2022/05/05 09:44:21;;;;;;;6.32;3.47;;;;;;;;;;10407722;28;20060;-52
2022/05/05 09:49:22;;;;;;;6.60;3.03;;;;;;;;;;10410997;28;20037;-47
2022/05/05 09:59:47;;;;;;;7.55;3.20;;;;;;;;;;10412115;28;20420;-50
2022/05/05 10:04:51;;;;;;;7.93;3.38;;;;;;;;;;10412408;28;20040;-48
2022/05/05 10:09:53;;;;;;;9.82;3.25;;;;;;;;;;10408260;28;20547;-49
2022/05/05 10:14:55;;;;;;;29.35;3.58;;;;;;;;;;10420160;28;20028;-49
2022/05/05 10:19:56;;;;;;;9.95;3.33;;;;;;;;;;10447092;28;20052;-49
2022/05/05 10:25:25;;;;;;;10.88;3.22;;;;;;;;;;10409111;28;20385;-51
2022/05/05 10:30:36;;;;;;;23.30;3.70;;;;;;;;;;10405809;28;20559;-49
2022/05/05 10:35:42;;;;;;;9.38;3.25;;;;;;;;;;10399772;28;20210;-49
2022/05/05 10:40:46;;;;;;;5.22;3.10;;;;;;;;;;10404395;28;20076;-49
2022/05/05 10:45:47;;;;;;;6.57;3.10;;;;;;;;;;10396676;28;20030;-49
2022/05/05 10:51:02;;;;;;;5.70;3.40;;;;;;;;;;10388328;28;20018;-49
2022/05/05 10:56:25;;;;;;;8.43;3.50;;;;;;;;;;10380322;28;20444;-48
2022/05/05 11:01:27;;;;;;;5.07;3.60;;;;;;;;;;10409905;28;20364;-49
2022/05/05 11:06:29;;;;;;;7.82;3.28;;;;;;;;;;10411749;28;20084;-51
2022/05/05 11:11:40;;;;;;;8.85;3.20;;;;;;;;;;10382691;28;20038;-51
2022/05/05 11:22:28;;;;;;;7.97;3.30;;;;;;;;;;10386266;28;20045;-49
2022/05/05 11:27:28;;;;;;;11.48;3.55;;;;;;;;;;10367413;28;20381;-49
2022/05/05 11:32:33;;;;;;;5.47;3.03;;;;;;;;;;10387595;28;20064;-50
2022/05/05 11:37:35;;;;;;;5.75;3.40;;;;;;;;;;10377371;28;20349;-49
2022/05/05 11:44:14;;;;;;;6.63;3.65;;;;;;;;;;10398437;28;20238;-52
2022/05/05 11:47:56;;;;;;;5.43;3.58;;;;;;;;;;10380549;28;20277;-49
2022/05/05 11:52:57;;;;;;;10.73;3.28;;;;;;;;;;10395511;28;20389;-54
2022/05/05 11:57:57;;;;;;;5.05;3.65;;;;;;;;;;10374513;28;20042;-53
2022/05/05 12:02:58;;;;;;;8.23;4.03;;;;;;;;;;10395663;28;20034;-53
2022/05/05 12:07:59;;;;;;;7.78;3.30;;;;;;;;;;10406775;28;20033;-54
2022/05/05 12:13:02;;;;;;;7.13;3.70;;;;;;;;;;10392283;28;20397;-51
2022/05/05 12:18:02;;;;;;;7.95;3.53;;;;;;;;;;10403099;28;20060;-53
2022/05/05 12:23:04;;;;;;;7.13;3.03;;;;;;;;;;10410573;28;20504;-55
2022/05/05 12:28:08;;;;;;;7.05;3.38;;;;;;;;;;10397738;28;20029;-54
2022/05/05 12:33:15;;;;;;;13.50;3.83;;;;;;;;;;10407656;28;20548;-54
2022/05/05 12:38:16;;;;;;;5.90;3.33;;;;;;;;;;10409224;28;20030;-53
2022/05/05 12:43:21;;;;;;;5.28;3.40;;;;;;;;;;10408585;28;20380;-54
2022/05/05 12:48:25;;;;;;;8.40;3.70;;;;;;;;;;10411772;28;20064;-54
2022/05/05 13:04:09;;;;;;;9.30;3.63;;;;;;;;;;10393284;28;20041;-55
2022/05/05 13:09:11;;;;;;;8.98;3.28;;;;;;;;;;10380975;28;20049;-54
2022/05/05 13:14:12;;;;;;;3.58;2.97;;;;;;;;;;10383212;28;20117;-55
2022/05/05 13:19:13;;;;;;;8.15;3.55;;;;;;;;;;10403907;28;20054;-54
2022/05/05 13:24:15;;;;;;;8.98;3.45;;;;;;;;;;10412443;28;20038;-56
2022/05/05 13:29:15;;;;;;;7.47;3.95;;;;;;;;;;10381140;28;20026;-52
2022/05/05 13:34:16;;;;;;;6.32;4.15;;;;;;;;;;10409110;28;20369;-54
2022/05/05 13:39:17;;;;;;;8.82;3.78;;;;;;;;;;10405560;28;20057;-57
2022/05/05 13:44:18;;;;;;;6.70;3.47;;;;;;;;;;10416218;28;20021;-53
2022/05/05 13:49:19;;;;;;;8.18;4.50;;;;;;;;;;10414915;28;20051;-52
2022/05/05 13:54:20;;;;;;;5.53;3.38;;;;;;;;;;10411148;28;20485;-53
2022/05/05 13:59:21;;;;;;;5.22;4.00;;;;;;;;;;10412029;28;20061;-55
2022/05/05 14:04:21;;;;;;;7.15;4.05;;;;;;;;;;10414517;28;20266;-52
2022/05/05 14:14:43;;;;;;;9.10;3.70;;;;;;;;;;10409178;28;20053;-51
2022/05/05 14:19:44;;;;;;;15.65;4.88;;;;;;;;;;10409618;28;20077;-53
2022/05/05 14:24:44;;;;;;;45.50;5.53;;;;;;;;;;10409511;28;20120;-52
2022/05/05 14:29:48;;;;;;;110.10;9.35;;;;;;;;;;10410165;28;20033;-51
2022/05/05 14:34:48;;;;;;;39.22;5.72;;;;;;;;;;10409937;28;20060;-51
2022/05/05 14:39:49;;;;;;;52.58;6.72;;;;;;;;;;10399136;28;20048;-49
2022/05/05 14:44:50;;;;;;;50.83;5.90;;;;;;;;;;10403305;28;20488;-54
2022/05/05 14:49:50;;;;;;;50.05;6.07;;;;;;;;;;10371859;28;20033;-52
2022/05/05 14:54:51;;;;;;;47.17;7.38;;;;;;;;;;10389083;28;20446;-48
2022/05/05 14:59:52;;;;;;;44.63;6.07;;;;;;;;;;10390665;28;20041;-49
2022/05/05 15:04:53;;;;;;;56.47;6.10;;;;;;;;;;10378617;28;20409;-48
2022/05/05 15:09:53;;;;;;;48.40;6.32;;;;;;;;;;10380563;28;20064;-52
2022/05/05 15:14:54;;;;;;;38.00;5.68;;;;;;;;;;10378746;28;20029;-50
2022/05/05 15:19:54;;;;;;;23.83;5.10;;;;;;;;;;10373401;28;20063;-50
2022/05/05 15:25:11;;;;;;;22.63;5.75;;;;;;;;;;10383570;28;20026;-52
2022/05/05 15:30:12;;;;;;;16.38;4.78;;;;;;;;;;10376511;28;20030;-47
2022/05/05 15:35:13;;;;;;;14.07;4.60;;;;;;;;;;10381567;28;20091;-49
2022/05/05 15:40:16;;;;;;;23.33;4.88;;;;;;;;;;10379656;28;20056;-48
2022/05/05 15:45:17;;;;;;;11.98;4.65;;;;;;;;;;10377001;28;20610;-50
2022/05/05 15:50:19;;;;;;;14.43;4.88;;;;;;;;;;10369488;28;20048;-48
2022/05/05 15:55:19;;;;;;;8.30;4.30;;;;;;;;;;10376834;28;20488;-50
2022/05/05 16:00:24;;;;;;;9.85;4.75;;;;;;;;;;10389747;28;20084;-53
2022/05/05 16:05:26;;;;;;;12.80;4.32;;;;;;;;;;10395037;28;20030;-52
2022/05/05 16:10:28;;;;;;;17.02;4.95;;;;;;;;;;10385876;28;20029;-48
2022/05/05 16:15:28;;;;;;;12.75;4.75;;;;;;;;;;10395051;28;20507;-46
2022/05/05 16:20:29;;;;;;;6.43;4.30;;;;;;;;;;10406150;28;20052;-49
2022/05/05 16:30:49;;;;;;;14.18;4.80;;;;;;;;;;10385988;28;20129;-49
2022/05/05 16:35:50;;;;;;;10.65;4.45;;;;;;;;;;10407527;28;20033;-49
2022/05/05 16:40:54;;;;;;;16.63;4.60;;;;;;;;;;10424308;28;20044;-51
2022/05/05 16:45:56;;;;;;;20.00;4.18;;;;;;;;;;10423729;28;20041;-51
2022/05/05 16:50:59;;;;;;;17.08;5.20;;;;;;;;;;10429463;28;20036;-50
2022/05/05 16:56:00;;;;;;;15.93;5.03;;;;;;;;;;10404416;28;20068;-49
2022/05/05 17:01:01;;;;;;;13.73;4.95;;;;;;;;;;10406249;28;20132;-51
2022/05/05 17:06:02;;;;;;;8.68;4.13;;;;;;;;;;10413479;28;20029;-51
2022/05/05 17:11:03;;;;;;;13.05;4.43;;;;;;;;;;10404093;28;20029;-50
2022/05/05 17:16:04;;;;;;;12.48;4.65;;;;;;;;;;10407972;28;20493;-49
2022/05/05 17:21:05;;;;;;;14.30;4.10;;;;;;;;;;10406640;28;20044;-50
2022/05/05 17:26:06;;;;;;;6.28;3.67;;;;;;;;;;10411849;28;20398;-50
2022/05/05 17:31:08;;;;;;;8.35;3.90;;;;;;;;;;10411852;28;20104;-49
2022/05/05 17:36:08;;;;;;;12.32;3.65;;;;;;;;;;10410980;28;20037;-50
2022/05/05 17:41:09;;;;;;;7.70;3.92;;;;;;;;;;10411021;28;20041;-48
2022/05/05 17:51:28;;;;;;;11.27;5.05;;;;;;;;;;10391135;28;20038;-50
2022/05/05 17:56:29;;;;;;;14.43;5.63;;;;;;;;;;10409381;28;20029;-51
2022/05/05 18:01:32;;;;;;;23.92;6.28;;;;;;;;;;10395141;28;20030;-53
2022/05/05 18:06:33;;;;;;;31.15;7.53;;;;;;;;;;10410355;28;20030;-50
2022/05/05 18:11:34;;;;;;;37.38;9.20;;;;;;;;;;10410282;28;20037;-48
2022/05/05 18:16:34;;;;;;;32.80;8.82;;;;;;;;;;10401156;28;20592;-49
2022/05/05 18:21:36;;;;;;;35.38;9.07;;;;;;;;;;10398743;28;20037;-47
2022/05/05 18:26:36;;;;;;;33.33;8.50;;;;;;;;;;10406434;28;20075;-50
2022/05/05 18:31:37;;;;;;;35.00;7.72;;;;;;;;;;10400100;28;20037;-50
2022/05/05 18:36:37;;;;;;;29.55;8.25;;;;;;;;;;10405017;28;20025;-50
2022/05/05 18:41:38;;;;;;;26.73;8.48;;;;;;;;;;10401944;28;20052;-53
2022/05/05 18:46:38;;;;;;;28.73;8.25;;;;;;;;;;10404815;28;20034;-48
2022/05/05 18:51:40;;;;;;;23.30;7.70;;;;;;;;;;10420745;28;20765;-47
2022/05/05 18:56:41;;;;;;;29.75;7.63;;;;;;;;;;10424592;28;20048;-50
2022/05/05 19:01:42;;;;;;;19.70;6.60;;;;;;;;;;10430216;28;20086;-48
2022/05/05 19:06:42;;;;;;;20.27;6.75;;;;;;;;;;10451195;28;20109;-48
2022/05/05 19:11:43;;;;;;;19.00;6.63;;;;;;;;;;10430656;28;20534;-47
2022/05/05 19:16:43;;;;;;;22.35;6.03;;;;;;;;;;10407820;28;20045;-47
2022/05/05 19:21:45;;;;;;;13.75;6.10;;;;;;;;;;10395981;28;20065;-47
2022/05/05 19:26:46;;;;;;;13.10;5.90;;;;;;;;;;10368345;28;20030;-48
2022/05/05 19:31:47;;;;;;;14.43;6.10;;;;;;;;;;10382057;28;20033;-47
2022/05/05 19:36:47;;;;;;;10.90;5.40;;;;;;;;;;10403159;28;20028;-51
2022/05/05 19:41:48;;;;;;;14.07;5.50;;;;;;;;;;10404275;28;20041;-49
2022/05/05 19:46:49;;;;;;;22.20;5.60;;;;;;;;;;10399871;28;20025;-50
2022/05/05 19:51:49;;;;;;;15.90;5.85;;;;;;;;;;10404954;28;20029;-49
2022/05/05 20:02:13;;;;;;;12.73;4.72;;;;;;;;;;10400373;28;20018;-48
2022/05/05 20:07:23;;;;;;;12.23;4.80;;;;;;;;;;10397080;28;20108;-50
2022/05/05 20:12:24;;;;;;;15.30;5.32;;;;;;;;;;10391761;28;20029;-48
2022/05/05 20:17:24;;;;;;;12.52;4.95;;;;;;;;;;10396815;28;20092;-48
2022/05/05 20:22:25;;;;;;;14.93;5.60;;;;;;;;;;10407090;28;20033;-48
2022/05/05 20:27:25;;;;;;;14.82;5.10;;;;;;;;;;10396364;28;20033;-49
2022/05/05 20:32:26;;;;;;;16.17;5.30;;;;;;;;;;10401302;28;20056;-48
2022/05/05 20:37:27;;;;;;;20.65;5.05;;;;;;;;;;10383372;28;20038;-48
2022/05/05 20:42:28;;;;;;;11.07;4.43;;;;;;;;;;10385003;28;20030;-49
2022/05/05 20:47:28;;;;;;;9.68;4.55;;;;;;;;;;10404534;28;20036;-48
2022/05/05 20:52:29;;;;;;;15.77;5.38;;;;;;;;;;10412679;28;20082;-48
2022/05/05 20:57:29;;;;;;;9.55;4.75;;;;;;;;;;10413733;28;20048;-48
2022/05/05 21:02:34;;;;;;;11.93;5.20;;;;;;;;;;10427060;28;20480;-48
2022/05/05 21:07:35;;;;;;;15.48;4.97;;;;;;;;;;10420874;28;20030;-48
2022/05/05 21:12:36;;;;;;;16.08;4.75;;;;;;;;;;10414111;28;20052;-48
2022/05/05 21:17:37;;;;;;;11.48;4.55;;;;;;;;;;10413632;28;20044;-48
2022/05/05 21:28:02;;;;;;;14.32;4.60;;;;;;;;;;10412837;28;20025;-48
2022/05/05 21:33:03;;;;;;;22.38;5.45;;;;;;;;;;10407477;28;20025;-48
2022/05/05 21:38:04;;;;;;;18.77;4.70;;;;;;;;;;10376929;28;20033;-48
2022/05/05 21:43:05;;;;;;;19.13;5.63;;;;;;;;;;10371465;28;20025;-49
2022/05/05 21:48:06;;;;;;;11.98;4.72;;;;;;;;;;10391514;28;20053;-49
2022/05/05 21:53:08;;;;;;;14.98;4.78;;;;;;;;;;10410926;28;20473;-47
2022/05/05 21:58:09;;;;;;;30.50;6.07;;;;;;;;;;10397146;28;20351;-47
2022/05/05 22:03:11;;;;;;;16.75;5.07;;;;;;;;;;10398996;28;20029;-49
2022/05/05 22:08:13;;;;;;;17.73;4.72;;;;;;;;;;10383589;28;20033;-47
2022/05/05 22:13:14;;;;;;;16.40;5.20;;;;;;;;;;10390879;28;20120;-47
2022/05/05 22:18:16;;;;;;;18.05;4.20;;;;;;;;;;10377503;28;20050;-48
2022/05/05 22:23:17;;;;;;;14.18;4.82;;;;;;;;;;10394792;28;20033;-47
2022/05/05 22:28:18;;;;;;;15.52;4.40;;;;;;;;;;10414827;28;20025;-47
2022/05/05 22:33:18;;;;;;;11.85;4.93;;;;;;;;;;10388922;28;20382;-47
2022/05/05 22:38:19;;;;;;;10.13;4.60;;;;;;;;;;10410673;28;20021;-47
2022/05/05 22:43:21;;;;;;;12.88;4.88;;;;;;;;;;10410591;28;20029;-46
2022/05/05 22:53:41;;;;;;;23.98;5.95;;;;;;;;;;10402140;28;20033;-46
2022/05/05 22:58:42;;;;;;;8.63;5.45;;;;;;;;;;10380247;28;20036;-47
2022/05/05 23:03:43;;;;;;;9.18;5.22;;;;;;;;;;10394648;28;20030;-46
2022/05/05 23:08:43;;;;;;;9.82;4.97;;;;;;;;;;10403524;28;20120;-46
2022/05/05 23:13:44;;;;;;;8.95;4.65;;;;;;;;;;10407450;28;20079;-46
2022/05/05 23:18:45;;;;;;;11.55;5.00;;;;;;;;;;10408358;28;20491;-48
2022/05/05 23:23:45;;;;;;;7.20;4.00;;;;;;;;;;10408836;28;20032;-49
2022/05/05 23:28:46;;;;;;;7.10;3.90;;;;;;;;;;10409162;28;20021;-48
2022/05/05 23:36:45;;;;;;;6.22;4.00;;;;;;;;;;10433346;28;20030;-47
2022/05/05 23:39:07;;;;;;;11.27;4.13;;;;;;;;;;10407461;28;20044;-49
2022/05/05 23:44:08;;;;;;;9.27;4.25;;;;;;;;;;10406983;28;20040;-48
2022/05/05 23:49:08;;;;;;;10.48;4.13;;;;;;;;;;10408659;28;20033;-49
2022/05/05 23:54:13;;;;;;;8.18;4.05;;;;;;;;;;10407910;28;20041;-48
2022/05/05 23:59:14;;;;;;;7.47;3.80;;;;;;;;;;10367562;28;20029;-49
